Black River Falls, WI

8:21 AM CST on January 22, 2017 (GMT -0600)
Black River Falls Area | | Change Station
Active Advisory: Dense Fog Advisory

Elev 837 ft 44.25 °N, 90.86 °W | Updated 6 minutes ago

Fog
Fog
36 °F
Feels Like 33 °F
N
4
Wind Variable Wind from WNW

Today
High -- | Low -- °F
--% Chance of Precip.
Yesterday
High -- | Low -- °F
Precip. -- in
Pressure 29.62 in
Visibility 0.5 miles
Clouds Overcast 300 ft
Windchill 33 °F
Dew Point 36 °F
Humidity 100%
Rainfall 0.00 in
Snow Depth Not available.
7:30 AM 4:59 PM
Waning Crescent, 26% visible
METAR KBCK 221415Z AUTO 29003KT 1/2SM FG OVC003 02/02 A2962 RMK AO2 T00200020
Pressure 29.62 in
Visibility 0.5 miles
Clouds Overcast 300 ft
Windchill 33 °F
Dew Point 36 °F
Humidity 100%
Rainfall 0.00 in
Snow Depth Not available.
7:30 AM 4:59 PM
Waning Crescent, 26% visible
METAR KBCK 221415Z AUTO 29003KT 1/2SM FG OVC003 02/02 A2962 RMK AO2 T00200020

Get Your Daily Forecast Email!

Thanks for signing up!

Be on the lookout for a verification email in your inbox.

You'll start receiving the daily forecast at 8 AM.

×

10-Day Weather Forecast

Almanac

Astronomy

Jan. 22, 2017 Rise Set
Actual Time
Civil Twilight
Nautical Twilight
Astronomical Twilight
Moon
Length of Visible Light
Length of Day
Tomorrow will be .
, % of the Moon is Illuminated

Today's Extremes

State Highs State Lows

Community

WunderPhotos

Upload Photos

1,962,540 photos uploaded!

WunderBlog® & News

Nearby

Air Quality

  Air Quality AQ Index Pollutant
Not available.

Snow Depth

Station Depth Elevation

Earthquake Activity

City Distance Mag. Time & Date
Minimum magnitude displayed is 2.5.

Coastal Water Temperatures

Place Temperature

Stations

Nearby Weather Stations

Station Location Temp. Windchill Dew Point Humidity Wind Precip. Elev Updated Type
                   

Watches & Warnings

Dense Fog Advisory
Issued: 7:27 AM CST Jan. 22, 2017 – National Weather Service

... Dense fog advisory remains in effect until noon CST today...

* dense fog will continue into the late morning... with visibility
reduced to 1/4 mile or less at times.

* For locations where fog has temporarily lifted... dense fog is
still expected from time to time.

* Impacts... significantly reduced visibility at times impacting
travel.

Precautionary/preparedness actions...

A dense fog advisory means visibilities will frequently be
reduced to less than one quarter mile. If driving... slow down...
use low beam headlights... and leave plenty of distance ahead of
you.


Rrs